createdAt,value
2022-12-23T00:01:14.697Z,9.00
2022-12-23T00:03:48.122Z,9.00
2022-12-23T00:06:20.522Z,9.10
2022-12-23T00:08:58.378Z,9.10
2022-12-23T00:11:27.965Z,9.10
2022-12-23T00:14:20.633Z,9.10
2022-12-23T00:16:51.828Z,9.00
2022-12-23T00:19:20.575Z,9.10
2022-12-23T00:21:54.525Z,9.00
2022-12-23T00:24:22.618Z,9.10
2022-12-23T00:26:50.793Z,9.00
2022-12-23T00:29:19.091Z,9.00
2022-12-23T00:31:51.658Z,9.00
2022-12-23T00:34:19.700Z,9.00
2022-12-23T00:36:50.979Z,9.00
2022-12-23T00:39:36.284Z,9.00
2022-12-23T00:42:27.363Z,9.00
2022-12-23T00:45:15.837Z,9.00
2022-12-23T00:48:03.648Z,9.00
2022-12-23T00:50:32.758Z,9.00
2022-12-23T00:53:03.387Z,9.00
2022-12-23T00:55:32.282Z,9.00
2022-12-23T00:58:01.273Z,8.90
2022-12-23T01:00:43.930Z,9.00
2022-12-23T01:03:33.354Z,9.00
2022-12-23T01:06:02.311Z,9.00
2022-12-23T01:08:30.599Z,9.00
2022-12-23T01:11:03.409Z,9.00
2022-12-23T01:13:31.678Z,8.90
2022-12-23T01:16:02.085Z,8.90
2022-12-23T01:18:33.867Z,8.90
2022-12-23T01:21:10.579Z,9.00
2022-12-23T01:23:39.117Z,8.90
2022-12-23T01:26:08.752Z,9.00
2022-12-23T01:28:38.022Z,8.90
2022-12-23T01:31:09.280Z,8.90
2022-12-23T01:33:39.094Z,8.90
2022-12-23T01:36:09.623Z,9.00
2022-12-23T01:38:40.789Z,9.00
2022-12-23T01:41:32.597Z,9.00
2022-12-23T01:43:59.966Z,9.00
2022-12-23T01:46:28.403Z,9.00
2022-12-23T01:49:01.775Z,9.00
2022-12-23T01:51:31.793Z,9.00
2022-12-23T01:54:05.964Z,9.00
2022-12-23T01:56:41.208Z,9.00
2022-12-23T01:59:35.087Z,9.00
2022-12-23T02:02:17.697Z,9.00
2022-12-23T02:04:49.224Z,9.00
2022-12-23T02:07:36.268Z,9.00
2022-12-23T02:10:08.894Z,9.00
2022-12-23T02:12:48.644Z,9.00
2022-12-23T02:15:55.696Z,9.00
2022-12-23T02:18:46.387Z,8.90
2022-12-23T02:21:29.316Z,9.00
2022-12-23T02:24:38.527Z,8.90
2022-12-23T02:27:24.625Z,8.90
2022-12-23T02:30:22.911Z,8.90
2022-12-23T02:33:14.563Z,8.90
2022-12-23T02:35:48.248Z,8.90
2022-12-23T02:38:22.167Z,8.90
2022-12-23T02:40:58.631Z,8.90
2022-12-23T02:46:25.593Z,8.90
2022-12-23T02:49:05.643Z,8.90
2022-12-23T02:51:40.892Z,8.80
2022-12-23T02:54:13.619Z,8.90
2022-12-23T02:56:47.532Z,8.90
2022-12-23T02:59:19.153Z,8.90
2022-12-23T03:01:49.150Z,8.90
2022-12-23T03:04:19.468Z,8.90
2022-12-23T03:06:51.000Z,8.90
2022-12-23T03:09:31.999Z,8.80
2022-12-23T03:12:07.760Z,8.90
2022-12-23T03:14:55.895Z,8.90
2022-12-23T03:17:43.629Z,8.90
2022-12-23T03:20:28.097Z,8.90
2022-12-23T03:23:02.796Z,8.90
2022-12-23T03:25:34.986Z,8.90
2022-12-23T03:28:09.991Z,8.90
2022-12-23T03:30:42.034Z,8.90
2022-12-23T03:33:16.530Z,8.80
2022-12-23T03:35:51.022Z,8.90
2022-12-23T03:38:22.496Z,8.80
2022-12-23T03:40:58.636Z,8.90
2022-12-23T03:43:29.939Z,8.80
2022-12-23T03:46:00.884Z,8.80
2022-12-23T03:48:35.852Z,8.80
2022-12-23T03:51:11.039Z,8.90
2022-12-23T03:53:45.002Z,8.90
2022-12-23T03:56:18.269Z,8.90
2022-12-23T03:58:54.408Z,8.90
2022-12-23T04:01:33.182Z,8.90
2022-12-23T04:04:07.037Z,8.90
2022-12-23T04:06:43.762Z,8.80
2022-12-23T04:09:16.748Z,8.80
2022-12-23T04:11:51.069Z,8.80
2022-12-23T04:14:25.974Z,8.80
2022-12-23T04:16:59.300Z,8.80
2022-12-23T04:19:30.041Z,8.80
2022-12-23T04:22:04.109Z,8.80
2022-12-23T04:24:32.730Z,8.80
2022-12-23T04:27:03.951Z,8.80
2022-12-23T04:29:32.448Z,8.80
2022-12-23T04:32:00.502Z,8.80
2022-12-23T04:34:28.875Z,8.80
2022-12-23T04:37:02.017Z,8.80
2022-12-23T04:39:31.426Z,8.80
2022-12-23T04:42:01.802Z,8.80
2022-12-23T04:44:30.950Z,8.80
2022-12-23T04:47:08.139Z,8.80
2022-12-23T04:49:38.860Z,8.70
2022-12-23T04:52:08.520Z,8.70
2022-12-23T04:54:42.204Z,8.70
2022-12-23T04:57:16.886Z,8.70
2022-12-23T04:59:45.705Z,8.70
2022-12-23T05:02:17.244Z,8.70
2022-12-23T05:04:45.638Z,8.70
2022-12-23T05:07:15.208Z,8.70
2022-12-23T05:09:45.843Z,8.70
2022-12-23T05:12:13.917Z,8.80
2022-12-23T05:14:42.306Z,8.70
2022-12-23T05:17:10.359Z,8.70
2022-12-23T05:19:41.297Z,8.60
2022-12-23T05:22:11.837Z,8.60
2022-12-23T05:24:45.140Z,8.60
2022-12-23T05:27:13.518Z,8.70
2022-12-23T05:29:41.905Z,8.60
2022-12-23T05:32:10.275Z,8.60
2022-12-23T05:34:38.619Z,8.60
2022-12-23T05:37:12.944Z,8.60
2022-12-23T05:39:41.953Z,8.50
2022-12-23T05:42:12.592Z,8.50
2022-12-23T05:44:43.016Z,8.50
2022-12-23T05:47:11.428Z,8.50
2022-12-23T05:49:39.789Z,8.50
2022-12-23T05:52:08.056Z,8.50
2022-12-23T05:54:36.105Z,8.60
2022-12-23T05:57:07.368Z,8.50
2022-12-23T05:59:36.931Z,8.50
2022-12-23T06:02:05.777Z,8.50
2022-12-23T06:04:37.547Z,8.50
2022-12-23T06:07:05.770Z,8.50
2022-12-23T06:09:33.933Z,8.50
2022-12-23T06:12:02.166Z,8.50
2022-12-23T06:14:37.828Z,8.50
2022-12-23T06:17:06.524Z,8.50
2022-12-23T06:19:34.995Z,8.40
2022-12-23T06:22:03.475Z,8.50
2022-12-23T06:24:31.843Z,8.50
2022-12-23T06:27:09.552Z,8.50
2022-12-23T06:29:40.791Z,8.50
2022-12-23T06:32:09.556Z,8.50
2022-12-23T06:34:38.141Z,8.40
2022-12-23T06:37:09.177Z,8.50
2022-12-23T06:39:37.589Z,8.40
2022-12-23T06:42:07.189Z,8.40
2022-12-23T06:44:35.551Z,8.50
2022-12-23T06:47:05.271Z,8.50
2022-12-23T06:49:33.728Z,8.40
2022-12-23T06:52:05.212Z,8.40
2022-12-23T06:54:33.679Z,8.30
2022-12-23T06:57:05.435Z,8.40
2022-12-23T06:59:33.618Z,8.30
2022-12-23T07:02:02.259Z,8.30
2022-12-23T07:04:32.664Z,8.30
2022-12-23T07:07:01.272Z,8.20
2022-12-23T07:09:31.851Z,8.20
2022-12-23T07:12:04.126Z,8.10
2022-12-23T07:14:32.772Z,8.10
2022-12-23T07:17:02.472Z,8.10
2022-12-23T07:19:32.844Z,8.10
2022-12-23T07:22:04.873Z,8.10
2022-12-23T07:24:40.449Z,8.10
2022-12-23T07:27:08.800Z,8.10
2022-12-23T07:29:37.411Z,8.00
2022-12-23T07:32:07.856Z,8.10
2022-12-23T07:34:39.879Z,8.10
2022-12-23T07:37:10.459Z,8.10
2022-12-23T07:39:40.089Z,8.10
2022-12-23T07:42:43.374Z,8.20
2022-12-23T07:45:08.752Z,8.20
2022-12-23T07:47:39.833Z,8.20
2022-12-23T07:50:16.275Z,8.20
2022-12-23T07:52:45.132Z,8.30
2022-12-23T07:55:14.246Z,8.30
2022-12-23T07:57:43.436Z,8.40
2022-12-23T08:00:19.652Z,8.40
2022-12-23T08:02:51.210Z,8.40
2022-12-23T08:05:22.083Z,8.40
2022-12-23T08:07:55.184Z,8.40
2022-12-23T08:10:27.995Z,8.50
2022-12-23T08:13:02.676Z,8.50
2022-12-23T08:15:34.059Z,8.60
2022-12-23T08:18:04.089Z,8.60
2022-12-23T08:20:40.966Z,8.60
2022-12-23T08:23:11.606Z,8.70
2022-12-23T08:25:42.761Z,8.70
2022-12-23T08:28:11.233Z,8.70
2022-12-23T08:30:43.927Z,8.70
2022-12-23T08:33:15.758Z,8.80
2022-12-23T08:35:48.980Z,8.80
2022-12-23T08:38:19.878Z,8.80
2022-12-23T08:40:48.261Z,8.80
2022-12-23T08:43:18.819Z,8.80
2022-12-23T08:45:47.812Z,8.90
2022-12-23T08:48:16.846Z,8.90
2022-12-23T08:50:48.136Z,8.90
2022-12-23T08:53:16.725Z,9.00
2022-12-23T08:55:51.544Z,8.90
2022-12-23T08:58:19.612Z,8.80
2022-12-23T09:00:47.976Z,8.80
2022-12-23T09:03:16.482Z,8.80
2022-12-23T09:05:51.616Z,8.80
2022-12-23T09:08:20.050Z,8.80
2022-12-23T09:10:49.815Z,8.90
2022-12-23T09:13:27.722Z,9.00
2022-12-23T09:16:00.763Z,8.90
2022-12-23T09:18:28.982Z,8.90
2022-12-23T09:21:01.855Z,9.00
2022-12-23T09:23:30.268Z,9.00
2022-12-23T09:25:59.213Z,9.00
2022-12-23T09:28:33.152Z,9.00
2022-12-23T09:31:09.269Z,9.00
2022-12-23T09:33:40.750Z,9.00
2022-12-23T09:36:14.165Z,9.10
2022-12-23T09:38:43.031Z,9.20
2022-12-23T09:41:28.529Z,9.20
2022-12-23T09:44:09.035Z,9.20
2022-12-23T09:46:54.515Z,9.30
2022-12-23T09:49:24.887Z,9.30
2022-12-23T09:52:00.290Z,9.30
2022-12-23T09:54:30.663Z,9.30
2022-12-23T09:57:06.436Z,9.40
2022-12-23T09:59:53.934Z,9.40
2022-12-23T10:02:33.061Z,9.40
2022-12-23T10:05:08.523Z,9.40
2022-12-23T10:07:42.146Z,9.40
2022-12-23T10:10:31.922Z,9.40
2022-12-23T10:13:12.173Z,9.40
2022-12-23T10:15:44.394Z,9.40
2022-12-23T10:18:19.898Z,9.50
2022-12-23T10:20:53.992Z,9.40
2022-12-23T10:23:39.181Z,9.50
2022-12-23T10:26:17.441Z,9.50
2022-12-23T10:28:48.811Z,9.50
2022-12-23T10:34:20.529Z,9.50
2022-12-23T10:36:57.235Z,9.50
2022-12-23T10:39:35.523Z,9.50
2022-12-23T10:42:13.560Z,9.60
2022-12-23T10:45:08.103Z,9.60
2022-12-23T10:47:52.505Z,9.50
2022-12-23T10:50:46.173Z,9.50
2022-12-23T10:53:26.342Z,9.50
2022-12-23T10:55:59.571Z,9.50
2022-12-23T10:58:28.438Z,9.50
2022-12-23T11:01:01.542Z,9.50
2022-12-23T11:03:33.929Z,9.50
2022-12-23T11:06:07.407Z,9.50
2022-12-23T11:08:39.102Z,9.50
2022-12-23T11:11:11.421Z,9.50
2022-12-23T11:13:42.407Z,9.60
2022-12-23T11:16:19.457Z,9.50
2022-12-23T11:19:00.274Z,9.50
2022-12-23T11:21:35.080Z,9.50
2022-12-23T11:24:19.350Z,9.50
2022-12-23T11:26:52.071Z,9.50
2022-12-23T11:29:28.748Z,9.50
2022-12-23T11:31:57.718Z,9.40
2022-12-23T11:34:28.710Z,9.50
2022-12-23T11:37:03.637Z,9.50
2022-12-23T11:39:41.029Z,9.50
2022-12-23T11:42:18.557Z,9.50
2022-12-23T11:44:49.203Z,9.50
2022-12-23T11:47:39.124Z,9.50
2022-12-23T11:50:33.737Z,9.50
2022-12-23T11:53:22.197Z,9.50
2022-12-23T11:56:00.946Z,9.50
2022-12-23T11:58:41.546Z,9.50
2022-12-23T12:01:18.592Z,9.50
2022-12-23T12:03:50.627Z,9.60
2022-12-23T12:06:24.506Z,9.60
2022-12-23T12:08:54.484Z,9.60
2022-12-23T12:11:41.993Z,9.60
2022-12-23T12:14:25.989Z,9.60
2022-12-23T12:16:59.783Z,9.60
2022-12-23T12:19:34.935Z,9.60
2022-12-23T12:22:11.948Z,9.60
2022-12-23T12:24:45.806Z,9.60
2022-12-23T12:27:17.313Z,9.60
2022-12-23T12:29:53.677Z,9.60
2022-12-23T12:32:31.987Z,9.60
2022-12-23T12:35:07.566Z,9.60
2022-12-23T12:37:46.676Z,9.60
2022-12-23T12:40:27.845Z,9.60
2022-12-23T12:43:03.150Z,9.50
2022-12-23T12:45:43.542Z,9.60
2022-12-23T12:48:28.427Z,9.60
2022-12-23T12:51:04.021Z,9.60
2022-12-23T12:53:34.942Z,9.50
2022-12-23T12:56:11.962Z,9.50
2022-12-23T12:58:46.594Z,9.50
2022-12-23T13:01:27.442Z,9.50
2022-12-23T13:04:31.305Z,9.50
2022-12-23T13:07:06.530Z,9.50
2022-12-23T13:09:57.754Z,9.50
2022-12-23T13:12:36.874Z,9.40
2022-12-23T13:15:19.596Z,9.50
2022-12-23T13:18:07.151Z,9.40
2022-12-23T13:20:42.236Z,9.40
2022-12-23T13:23:42.257Z,9.40
2022-12-23T13:26:15.410Z,9.50
2022-12-23T13:28:53.696Z,9.40
2022-12-23T13:31:35.291Z,9.40
2022-12-23T13:34:13.303Z,9.40
2022-12-23T13:36:48.189Z,9.40
2022-12-23T13:39:28.245Z,9.40
2022-12-23T13:42:05.059Z,9.40
2022-12-23T13:44:36.359Z,9.40
2022-12-23T13:47:14.677Z,9.30
2022-12-23T13:49:56.328Z,9.30
2022-12-23T13:52:36.473Z,9.30
2022-12-23T13:55:19.152Z,9.30
2022-12-23T13:57:56.657Z,9.30
2022-12-23T14:00:30.962Z,9.30
2022-12-23T14:03:17.511Z,9.30
2022-12-23T14:05:51.272Z,9.30
2022-12-23T14:08:33.099Z,9.30
2022-12-23T14:11:07.203Z,9.20
2022-12-23T14:13:42.120Z,9.30
2022-12-23T14:16:31.756Z,9.30
2022-12-23T14:19:37.188Z,9.30
2022-12-23T14:22:16.482Z,9.30
2022-12-23T14:25:30.515Z,9.30
2022-12-23T14:28:08.640Z,9.30
2022-12-23T14:30:40.456Z,9.30
2022-12-23T14:33:18.196Z,9.30
2022-12-23T14:36:15.198Z,9.20
2022-12-23T14:39:23.493Z,9.20
2022-12-23T14:41:53.471Z,9.20
2022-12-23T14:44:44.113Z,9.20
2022-12-23T14:47:31.104Z,9.20
2022-12-23T14:50:39.461Z,9.30
2022-12-23T14:53:23.175Z,9.30
2022-12-23T14:56:08.845Z,9.30
2022-12-23T14:58:54.924Z,9.40
2022-12-23T15:01:31.652Z,9.40
2022-12-23T15:04:01.773Z,9.50
2022-12-23T15:06:36.261Z,9.50
2022-12-23T15:09:06.102Z,9.50
2022-12-23T15:11:37.412Z,9.50
2022-12-23T15:14:11.390Z,9.50
2022-12-23T15:16:45.224Z,9.60
2022-12-23T15:19:20.007Z,9.60
2022-12-23T15:21:54.450Z,9.70
2022-12-23T15:24:28.607Z,9.80
2022-12-23T15:27:25.298Z,9.70
2022-12-23T15:29:50.618Z,9.70
2022-12-23T15:32:19.921Z,9.70
2022-12-23T15:34:49.712Z,9.50
2022-12-23T15:37:20.349Z,9.50
2022-12-23T15:39:54.153Z,9.50
2022-12-23T15:42:34.060Z,9.50
2022-12-23T15:45:15.442Z,9.60
2022-12-23T15:47:43.729Z,9.60
2022-12-23T15:50:15.891Z,9.60
2022-12-23T15:52:47.997Z,9.70
2022-12-23T15:55:21.852Z,9.60
2022-12-23T15:57:54.946Z,9.50
2022-12-23T16:00:31.585Z,9.60
2022-12-23T16:03:02.730Z,9.70
2022-12-23T16:05:33.897Z,9.70
2022-12-23T16:08:28.652Z,9.70
2022-12-23T16:11:05.846Z,9.50
2022-12-23T16:13:44.923Z,9.50
2022-12-23T16:16:21.215Z,9.50
2022-12-23T16:18:52.681Z,9.50
2022-12-23T16:21:29.619Z,9.50
2022-12-23T16:23:59.752Z,9.60
2022-12-23T16:26:32.180Z,9.90
2022-12-23T16:29:07.045Z,9.90
2022-12-23T16:31:44.265Z,9.90
2022-12-23T16:34:16.494Z,10.00
2022-12-23T16:36:47.390Z,10.20
2022-12-23T16:39:21.669Z,10.30
2022-12-23T16:41:50.258Z,10.30
2022-12-23T16:44:22.449Z,10.10
2022-12-23T16:46:52.925Z,10.20
2022-12-23T16:49:26.610Z,10.20
2022-12-23T16:51:58.416Z,10.40
2022-12-23T16:54:26.902Z,10.60
2022-12-23T16:56:58.234Z,10.60
2022-12-23T16:59:30.276Z,10.70
2022-12-23T17:02:03.493Z,10.80
2022-12-23T17:04:32.268Z,10.70
2022-12-23T17:07:00.590Z,10.80
2022-12-23T17:09:29.253Z,10.90
2022-12-23T17:12:00.016Z,10.90
2022-12-23T17:14:31.837Z,11.00
2022-12-23T17:17:00.051Z,11.10
2022-12-23T17:19:29.241Z,11.20
2022-12-23T17:22:03.072Z,11.20
2022-12-23T17:24:31.512Z,11.30
2022-12-23T17:26:59.667Z,11.30
2022-12-23T17:29:29.788Z,11.30
2022-12-23T17:31:58.765Z,11.30
2022-12-23T17:34:27.075Z,11.30
2022-12-23T17:36:58.134Z,11.40
2022-12-23T17:39:26.315Z,11.40
2022-12-23T17:41:54.777Z,11.40
2022-12-23T17:44:23.019Z,11.50
2022-12-23T17:46:52.443Z,11.40
2022-12-23T17:49:20.727Z,11.40
2022-12-23T17:51:49.115Z,11.50
2022-12-23T17:54:30.874Z,11.50
2022-12-23T17:56:59.245Z,11.40
2022-12-23T17:59:27.770Z,11.50
2022-12-23T18:01:59.655Z,11.50
2022-12-23T18:04:28.190Z,11.50
2022-12-23T18:06:58.207Z,11.50
2022-12-23T18:09:33.188Z,11.50
2022-12-23T18:12:08.403Z,11.40
2022-12-23T18:14:36.573Z,11.40
2022-12-23T18:17:06.376Z,11.40
2022-12-23T18:19:40.259Z,11.50
2022-12-23T18:22:19.326Z,11.40
2022-12-23T18:24:49.381Z,11.30
2022-12-23T18:27:25.551Z,11.30
2022-12-23T18:29:53.674Z,11.40
2022-12-23T18:32:25.919Z,11.40
2022-12-23T18:34:55.421Z,11.40
2022-12-23T18:37:25.329Z,11.30
2022-12-23T18:39:56.380Z,11.30
2022-12-23T18:42:26.900Z,11.20
2022-12-23T18:44:55.629Z,11.10
2022-12-23T18:47:33.560Z,11.10
2022-12-23T18:50:01.649Z,11.10
2022-12-23T18:52:35.294Z,11.00
2022-12-23T18:55:03.692Z,11.00
2022-12-23T18:57:38.298Z,11.00
2022-12-23T19:00:08.096Z,10.90
2022-12-23T19:02:38.090Z,11.00
2022-12-23T19:05:07.449Z,11.00
2022-12-23T19:07:38.486Z,10.90
2022-12-23T19:10:07.204Z,10.80
2022-12-23T19:12:41.180Z,10.80
2022-12-23T19:15:11.201Z,10.80
2022-12-23T19:17:42.963Z,10.80
2022-12-23T19:20:16.210Z,10.70
2022-12-23T19:22:48.584Z,10.70
2022-12-23T19:25:18.537Z,10.60
2022-12-23T19:27:47.943Z,10.60
2022-12-23T19:30:18.739Z,10.60
2022-12-23T19:32:50.205Z,10.70
2022-12-23T19:35:18.834Z,10.70
2022-12-23T19:37:49.347Z,10.70
2022-12-23T19:40:20.008Z,10.70
2022-12-23T19:42:48.340Z,10.70
2022-12-23T19:45:17.433Z,10.60
2022-12-23T19:47:56.194Z,10.70
2022-12-23T19:50:24.566Z,10.60
2022-12-23T19:52:54.805Z,10.60
2022-12-23T19:55:23.258Z,10.60
2022-12-23T19:57:54.188Z,10.60
2022-12-23T20:00:22.568Z,10.60
2022-12-23T20:02:58.993Z,10.50
2022-12-23T20:05:31.086Z,10.60
2022-12-23T20:07:59.555Z,10.60
2022-12-23T20:10:27.866Z,10.60
2022-12-23T20:12:56.388Z,10.60
2022-12-23T20:15:24.775Z,10.60
2022-12-23T20:17:54.412Z,10.60
2022-12-23T20:20:23.643Z,10.60
2022-12-23T20:22:52.326Z,10.60
2022-12-23T20:25:22.257Z,10.50
2022-12-23T20:27:50.394Z,10.50
2022-12-23T20:30:21.661Z,10.60
2022-12-23T20:32:49.845Z,10.50
2022-12-23T20:35:22.082Z,10.60
2022-12-23T20:37:50.297Z,10.60
2022-12-23T20:40:19.374Z,10.60
2022-12-23T20:42:51.521Z,10.50
2022-12-23T20:45:21.733Z,10.40
2022-12-23T20:47:49.907Z,10.30
2022-12-23T20:50:19.749Z,10.40
2022-12-23T20:52:51.008Z,10.30
2022-12-23T20:55:19.263Z,10.30
2022-12-23T20:57:47.551Z,10.40
2022-12-23T21:00:23.653Z,10.30
2022-12-23T21:02:51.811Z,10.30
2022-12-23T21:05:21.573Z,10.40
2022-12-23T21:07:49.556Z,10.30
2022-12-23T21:10:20.828Z,10.40
2022-12-23T21:12:49.016Z,10.50
2022-12-23T21:15:19.894Z,10.40
2022-12-23T21:17:47.913Z,10.40
2022-12-23T21:20:18.750Z,10.40
2022-12-23T21:22:48.505Z,10.50
2022-12-23T21:25:16.928Z,10.50
2022-12-23T21:27:46.965Z,10.70
2022-12-23T21:30:15.632Z,10.70
2022-12-23T21:32:46.724Z,10.60
2022-12-23T21:35:14.836Z,10.70
2022-12-23T21:37:43.228Z,10.70
2022-12-23T21:40:15.999Z,10.60
2022-12-23T21:42:44.199Z,10.60
2022-12-23T21:45:13.113Z,10.60
2022-12-23T21:47:41.411Z,10.70
2022-12-23T21:50:12.436Z,10.60
2022-12-23T21:52:42.141Z,10.60
2022-12-23T21:55:15.863Z,10.60
2022-12-23T21:57:44.081Z,10.60
2022-12-23T22:00:13.063Z,10.70
2022-12-23T22:02:41.378Z,10.70
2022-12-23T22:05:13.807Z,10.70
2022-12-23T22:07:44.869Z,10.70
2022-12-23T22:10:16.572Z,10.70
2022-12-23T22:12:45.093Z,10.70
2022-12-23T22:15:13.588Z,10.60
2022-12-23T22:17:41.759Z,10.60
2022-12-23T22:20:12.077Z,10.60
2022-12-23T22:22:43.213Z,10.50
2022-12-23T22:25:17.572Z,10.50
2022-12-23T22:27:47.065Z,10.40
2022-12-23T22:30:15.594Z,10.40
2022-12-23T22:32:46.078Z,10.30
2022-12-23T22:35:14.224Z,10.20
2022-12-23T22:37:43.587Z,10.10
2022-12-23T22:40:12.405Z,10.30
2022-12-23T22:42:42.094Z,10.30
2022-12-23T22:45:15.333Z,10.20
2022-12-23T22:47:43.608Z,10.00
2022-12-23T22:50:12.638Z,10.00
2022-12-23T22:52:40.997Z,10.10
2022-12-23T22:55:10.104Z,10.10
2022-12-23T22:57:38.394Z,10.10
2022-12-23T23:00:12.512Z,10.20
2022-12-23T23:02:41.063Z,10.10
2022-12-23T23:05:13.117Z,10.20
2022-12-23T23:07:41.593Z,10.10
2022-12-23T23:10:10.634Z,10.20
2022-12-23T23:12:38.567Z,10.30
2022-12-23T23:15:09.463Z,10.30
2022-12-23T23:17:38.022Z,10.20
2022-12-23T23:20:07.087Z,10.20
2022-12-23T23:22:35.331Z,10.20
2022-12-23T23:25:03.336Z,10.20
2022-12-23T23:27:36.304Z,10.30
2022-12-23T23:30:10.581Z,10.40
2022-12-23T23:32:39.186Z,10.40
2022-12-23T23:35:10.846Z,10.50
2022-12-23T23:37:41.197Z,10.50
2022-12-23T23:40:12.846Z,10.50
2022-12-23T23:42:43.835Z,10.60
2022-12-23T23:45:13.795Z,10.60
2022-12-23T23:47:43.535Z,10.50
2022-12-23T23:50:11.818Z,10.50
2022-12-23T23:52:42.857Z,10.40
2022-12-23T23:55:11.501Z,10.40
2022-12-23T23:57:40.673Z,10.40
